sensor_id;sensor_type;location;lat;lon;timestamp;temperature;humidity
26272;DHT22;13997;48.902;12.472;2023-07-29T00:01:31;486.90;2380.80
26272;DHT22;13997;48.902;12.472;2023-07-29T00:03:56;486.80;2380.80
26272;DHT22;13997;48.902;12.472;2023-07-29T00:06:22;486.80;2380.80
26272;DHT22;13997;48.902;12.472;2023-07-29T00:08:48;486.80;2380.80
26272;DHT22;13997;48.902;12.472;2023-07-29T00:11:13;486.80;2380.80
26272;DHT22;13997;48.902;12.472;2023-07-29T00:13:39;486.70;2380.80
26272;DHT22;13997;48.902;12.472;2023-07-29T00:16:04;486.70;2380.80
26272;DHT22;13997;48.902;12.472;2023-07-29T00:18:31;486.70;2380.80
26272;DHT22;13997;48.902;12.472;2023-07-29T00:20:57;486.70;2380.80
26272;DHT22;13997;48.902;12.472;2023-07-29T00:23:23;486.70;2380.80
26272;DHT22;13997;48.902;12.472;2023-07-29T00:25:48;486.70;2380.80
26272;DHT22;13997;48.902;12.472;2023-07-29T00:28:14;486.70;2380.80
26272;DHT22;13997;48.902;12.472;2023-07-29T00:30:40;486.70;2380.80
26272;DHT22;13997;48.902;12.472;2023-07-29T00:33:06;486.70;2380.80
26272;DHT22;13997;48.902;12.472;2023-07-29T00:35:31;486.70;2380.80
26272;DHT22;13997;48.902;12.472;2023-07-29T00:37:57;486.70;2380.80
26272;DHT22;13997;48.902;12.472;2023-07-29T00:40:22;486.60;2380.80
26272;DHT22;13997;48.902;12.472;2023-07-29T00:42:49;486.60;2380.80
26272;DHT22;13997;48.902;12.472;2023-07-29T00:45:15;486.50;2380.80
26272;DHT22;13997;48.902;12.472;2023-07-29T00:47:42;486.50;2380.80
26272;DHT22;13997;48.902;12.472;2023-07-29T00:50:09;486.50;2380.80
26272;DHT22;13997;48.902;12.472;2023-07-29T00:52:36;486.40;2380.80
26272;DHT22;13997;48.902;12.472;2023-07-29T00:55:02;486.40;2380.80
26272;DHT22;13997;48.902;12.472;2023-07-29T00:57:29;461.70;2380.80
26272;DHT22;13997;48.902;12.472;2023-07-29T00:59:55;486.40;2380.80
26272;DHT22;13997;48.902;12.472;2023-07-29T01:02:21;461.70;2380.80
26272;DHT22;13997;48.902;12.472;2023-07-29T01:04:57;486.40;2380.80
26272;DHT22;13997;48.902;12.472;2023-07-29T01:07:25;486.40;2380.80
26272;DHT22;13997;48.902;12.472;2023-07-29T01:12:49;486.50;2380.80
26272;DHT22;13997;48.902;12.472;2023-07-29T01:15:24;486.50;2380.80
26272;DHT22;13997;48.902;12.472;2023-07-29T01:18:26;486.50;2380.80
26272;DHT22;13997;48.902;12.472;2023-07-29T01:20:53;486.50;2380.80
26272;DHT22;13997;48.902;12.472;2023-07-29T01:23:33;486.50;2380.80
26272;DHT22;13997;48.902;12.472;2023-07-29T01:25:59;486.50;2380.80
26272;DHT22;13997;48.902;12.472;2023-07-29T01:28:25;486.50;2380.80
26272;DHT22;13997;48.902;12.472;2023-07-29T01:31:08;486.50;2380.80
26272;DHT22;13997;48.902;12.472;2023-07-29T01:34:17;486.50;2380.80
26272;DHT22;13997;48.902;12.472;2023-07-29T01:36:42;486.40;2380.80
26272;DHT22;13997;48.902;12.472;2023-07-29T01:39:09;486.50;2380.80
26272;DHT22;13997;48.902;12.472;2023-07-29T01:41:36;486.50;2380.80
26272;DHT22;13997;48.902;12.472;2023-07-29T01:44:03;486.50;2380.80
26272;DHT22;13997;48.902;12.472;2023-07-29T01:46:28;486.50;2380.80
26272;DHT22;13997;48.902;12.472;2023-07-29T01:48:54;486.50;2380.80
26272;DHT22;13997;48.902;12.472;2023-07-29T01:51:19;486.50;2380.80
26272;DHT22;13997;48.902;12.472;2023-07-29T01:53:46;486.40;2380.80
26272;DHT22;13997;48.902;12.472;2023-07-29T01:56:12;486.40;2380.80
26272;DHT22;13997;48.902;12.472;2023-07-29T01:58:37;486.40;2380.80
26272;DHT22;13997;48.902;12.472;2023-07-29T02:01:03;486.40;2380.80
26272;DHT22;13997;48.902;12.472;2023-07-29T02:03:28;486.40;2380.80
26272;DHT22;13997;48.902;12.472;2023-07-29T02:05:54;486.40;2380.80
26272;DHT22;13997;48.902;12.472;2023-07-29T02:08:19;486.40;2380.80
26272;DHT22;13997;48.902;12.472;2023-07-29T02:10:45;486.40;2380.80
26272;DHT22;13997;48.902;12.472;2023-07-29T02:13:11;461.70;2380.80
26272;DHT22;13997;48.902;12.472;2023-07-29T02:15:37;461.70;2380.80
26272;DHT22;13997;48.902;12.472;2023-07-29T02:18:02;461.70;2380.80
26272;DHT22;13997;48.902;12.472;2023-07-29T02:20:28;461.70;2380.80
26272;DHT22;13997;48.902;12.472;2023-07-29T02:22:54;461.70;2380.80
26272;DHT22;13997;48.902;12.472;2023-07-29T02:25:20;461.70;2380.80
26272;DHT22;13997;48.902;12.472;2023-07-29T02:27:45;461.70;2380.80
26272;DHT22;13997;48.902;12.472;2023-07-29T02:30:11;461.70;2380.80
26272;DHT22;13997;48.902;12.472;2023-07-29T02:32:37;461.70;2380.80
26272;DHT22;13997;48.902;12.472;2023-07-29T02:35:03;461.60;2380.80
26272;DHT22;13997;48.902;12.472;2023-07-29T02:37:30;461.60;2380.80
26272;DHT22;13997;48.902;12.472;2023-07-29T02:39:55;461.60;2380.80
26272;DHT22;13997;48.902;12.472;2023-07-29T02:42:21;461.60;2380.80
26272;DHT22;13997;48.902;12.472;2023-07-29T02:44:47;461.60;2380.80
26272;DHT22;13997;48.902;12.472;2023-07-29T02:47:12;461.60;2380.80
26272;DHT22;13997;48.902;12.472;2023-07-29T02:49:38;461.60;2380.80
26272;DHT22;13997;48.902;12.472;2023-07-29T02:52:04;461.50;2380.80
26272;DHT22;13997;48.902;12.472;2023-07-29T02:54:29;461.50;2380.80
26272;DHT22;13997;48.902;12.472;2023-07-29T02:56:55;461.50;2380.80
26272;DHT22;13997;48.902;12.472;2023-07-29T02:59:20;461.50;2380.80
26272;DHT22;13997;48.902;12.472;2023-07-29T03:01:46;461.50;2380.80
26272;DHT22;13997;48.902;12.472;2023-07-29T03:04:12;461.40;2380.80
26272;DHT22;13997;48.902;12.472;2023-07-29T03:06:38;461.40;2380.80
26272;DHT22;13997;48.902;12.472;2023-07-29T03:09:04;461.40;2380.80
26272;DHT22;13997;48.902;12.472;2023-07-29T03:11:30;461.40;2380.80
26272;DHT22;13997;48.902;12.472;2023-07-29T03:13:56;461.30;2380.80
26272;DHT22;13997;48.902;12.472;2023-07-29T03:16:22;461.30;2380.80
26272;DHT22;13997;48.902;12.472;2023-07-29T03:18:48;461.30;2380.80
26272;DHT22;13997;48.902;12.472;2023-07-29T03:21:14;461.20;2380.80
26272;DHT22;13997;48.902;12.472;2023-07-29T03:23:40;461.10;2380.80
26272;DHT22;13997;48.902;12.472;2023-07-29T03:26:06;461.00;2380.80
26272;DHT22;13997;48.902;12.472;2023-07-29T03:28:37;461.00;2380.80
26272;DHT22;13997;48.902;12.472;2023-07-29T03:31:03;460.90;2380.80
26272;DHT22;13997;48.902;12.472;2023-07-29T03:33:29;460.90;2380.80
26272;DHT22;13997;48.902;12.472;2023-07-29T03:35:54;460.90;2380.80
26272;DHT22;13997;48.902;12.472;2023-07-29T03:38:20;460.90;2380.80
26272;DHT22;13997;48.902;12.472;2023-07-29T03:40:46;460.90;2380.80
26272;DHT22;13997;48.902;12.472;2023-07-29T03:43:12;460.80;2380.80
26272;DHT22;13997;48.902;12.472;2023-07-29T03:45:38;460.80;2380.80
26272;DHT22;13997;48.902;12.472;2023-07-29T03:48:04;460.80;2380.80
26272;DHT22;13997;48.902;12.472;2023-07-29T03:50:30;460.80;2380.80
26272;DHT22;13997;48.902;12.472;2023-07-29T03:52:56;460.80;2380.80
26272;DHT22;13997;48.902;12.472;2023-07-29T03:55:22;460.80;2380.80
26272;DHT22;13997;48.902;12.472;2023-07-29T03:57:47;460.80;2380.80
26272;DHT22;13997;48.902;12.472;2023-07-29T04:00:13;460.80;2380.80
26272;DHT22;13997;48.902;12.472;2023-07-29T04:02:39;460.80;2380.80
26272;DHT22;13997;48.902;12.472;2023-07-29T04:05:06;460.80;2380.80
26272;DHT22;13997;48.902;12.472;2023-07-29T04:07:34;460.80;2380.80
26272;DHT22;13997;48.902;12.472;2023-07-29T04:10:00;460.80;2380.80
26272;DHT22;13997;48.902;12.472;2023-07-29T04:12:26;460.80;2380.80
26272;DHT22;13997;48.902;12.472;2023-07-29T04:14:52;460.80;2380.80
26272;DHT22;13997;48.902;12.472;2023-07-29T04:17:17;460.80;2380.80
26272;DHT22;13997;48.902;12.472;2023-07-29T04:19:43;460.80;2380.80
26272;DHT22;13997;48.902;12.472;2023-07-29T04:22:09;436.10;2355.20
26272;DHT22;13997;48.902;12.472;2023-07-29T04:24:34;436.10;2355.20
26272;DHT22;13997;48.902;12.472;2023-07-29T04:27:00;436.10;2355.20
26272;DHT22;13997;48.902;12.472;2023-07-29T04:29:25;436.10;2355.20
26272;DHT22;13997;48.902;12.472;2023-07-29T04:31:51;436.10;2355.20
26272;DHT22;13997;48.902;12.472;2023-07-29T04:34:18;436.10;2355.20
26272;DHT22;13997;48.902;12.472;2023-07-29T04:36:47;436.10;2355.20
26272;DHT22;13997;48.902;12.472;2023-07-29T04:39:13;436.10;2355.20
26272;DHT22;13997;48.902;12.472;2023-07-29T04:41:39;436.10;2355.20
26272;DHT22;13997;48.902;12.472;2023-07-29T04:44:04;460.80;2380.80
26272;DHT22;13997;48.902;12.472;2023-07-29T04:46:30;460.80;2380.80
26272;DHT22;13997;48.902;12.472;2023-07-29T04:48:56;460.90;2380.80
26272;DHT22;13997;48.902;12.472;2023-07-29T04:51:21;461.00;2380.80
26272;DHT22;13997;48.902;12.472;2023-07-29T04:53:47;461.00;2380.80
26272;DHT22;13997;48.902;12.472;2023-07-29T04:56:13;461.10;2380.80
26272;DHT22;13997;48.902;12.472;2023-07-29T04:58:39;461.00;2380.80
26272;DHT22;13997;48.902;12.472;2023-07-29T05:01:04;461.00;2380.80
26272;DHT22;13997;48.902;12.472;2023-07-29T05:03:30;461.10;2380.80
26272;DHT22;13997;48.902;12.472;2023-07-29T05:05:56;461.20;2380.80
26272;DHT22;13997;48.902;12.472;2023-07-29T05:08:22;461.20;2380.80
26272;DHT22;13997;48.902;12.472;2023-07-29T05:10:51;461.20;2380.80
26272;DHT22;13997;48.902;12.472;2023-07-29T05:13:18;461.30;2380.80
26272;DHT22;13997;48.902;12.472;2023-07-29T05:15:43;461.20;2380.80
26272;DHT22;13997;48.902;12.472;2023-07-29T05:18:09;461.20;2380.80
26272;DHT22;13997;48.902;12.472;2023-07-29T05:20:35;461.10;2380.80
26272;DHT22;13997;48.902;12.472;2023-07-29T05:23:00;461.10;2380.80
26272;DHT22;13997;48.902;12.472;2023-07-29T05:25:26;461.30;2380.80
26272;DHT22;13997;48.902;12.472;2023-07-29T05:27:52;461.30;2380.80
26272;DHT22;13997;48.902;12.472;2023-07-29T05:30:18;461.30;2380.80
26272;DHT22;13997;48.902;12.472;2023-07-29T05:32:43;461.40;2380.80
26272;DHT22;13997;48.902;12.472;2023-07-29T05:35:09;461.50;2380.80
26272;DHT22;13997;48.902;12.472;2023-07-29T05:37:37;461.60;2380.80
26272;DHT22;13997;48.902;12.472;2023-07-29T05:40:03;461.70;2380.80
26272;DHT22;13997;48.902;12.472;2023-07-29T05:42:29;486.50;2380.80
26272;DHT22;13997;48.902;12.472;2023-07-29T05:44:55;486.60;2380.80
26272;DHT22;13997;48.902;12.472;2023-07-29T05:47:20;486.70;2380.80
26272;DHT22;13997;48.902;12.472;2023-07-29T05:49:46;486.90;2380.80
26272;DHT22;13997;48.902;12.472;2023-07-29T05:52:11;486.80;2380.80
26272;DHT22;13997;48.902;12.472;2023-07-29T05:54:37;486.90;2380.80
26272;DHT22;13997;48.902;12.472;2023-07-29T05:57:03;486.80;2380.80
26272;DHT22;13997;48.902;12.472;2023-07-29T05:59:29;486.80;2380.80
26272;DHT22;13997;48.902;12.472;2023-07-29T06:01:55;486.90;2380.80
26272;DHT22;13997;48.902;12.472;2023-07-29T06:04:21;486.90;2380.80
26272;DHT22;13997;48.902;12.472;2023-07-29T06:06:47;487.00;2380.80
26272;DHT22;13997;48.902;12.472;2023-07-29T06:09:12;487.20;2380.80
26272;DHT22;13997;48.902;12.472;2023-07-29T06:11:38;487.20;2380.80
26272;DHT22;13997;48.902;12.472;2023-07-29T06:14:03;487.30;2380.80
26272;DHT22;13997;48.902;12.472;2023-07-29T06:16:29;512.00;2380.80
26272;DHT22;13997;48.902;12.472;2023-07-29T06:18:54;512.10;2380.80
26272;DHT22;13997;48.902;12.472;2023-07-29T06:21:20;512.30;2380.80
26272;DHT22;13997;48.902;12.472;2023-07-29T06:23:46;512.50;2380.80
26272;DHT22;13997;48.902;12.472;2023-07-29T06:26:12;512.60;2380.80
26272;DHT22;13997;48.902;12.472;2023-07-29T06:28:37;512.70;2380.80
26272;DHT22;13997;48.902;12.472;2023-07-29T06:31:03;512.80;2380.80
26272;DHT22;13997;48.902;12.472;2023-07-29T06:33:28;512.80;2380.80
26272;DHT22;13997;48.902;12.472;2023-07-29T06:35:54;512.90;2380.80
26272;DHT22;13997;48.902;12.472;2023-07-29T06:38:19;537.60;2406.40
26272;DHT22;13997;48.902;12.472;2023-07-29T06:40:48;537.70;2406.40
26272;DHT22;13997;48.902;12.472;2023-07-29T06:43:13;537.90;2406.40
26272;DHT22;13997;48.902;12.472;2023-07-29T06:45:39;537.90;2406.40
26272;DHT22;13997;48.902;12.472;2023-07-29T06:48:04;537.80;2406.40
26272;DHT22;13997;48.902;12.472;2023-07-29T06:50:30;537.90;2406.40
26272;DHT22;13997;48.902;12.472;2023-07-29T06:52:55;537.90;2406.40
26272;DHT22;13997;48.902;12.472;2023-07-29T06:55:21;538.00;2406.40
26272;DHT22;13997;48.902;12.472;2023-07-29T06:57:46;538.10;2406.40
26272;DHT22;13997;48.902;12.472;2023-07-29T07:00:12;538.20;2406.40
26272;DHT22;13997;48.902;12.472;2023-07-29T07:02:38;538.40;2406.40
26272;DHT22;13997;48.902;12.472;2023-07-29T07:05:03;538.40;2406.40
26272;DHT22;13997;48.902;12.472;2023-07-29T07:07:29;538.40;2406.40
26272;DHT22;13997;48.902;12.472;2023-07-29T07:09:55;538.40;2406.40
26272;DHT22;13997;48.902;12.472;2023-07-29T07:12:21;538.50;2406.40
26272;DHT22;13997;48.902;12.472;2023-07-29T07:14:47;563.20;2432.00
26272;DHT22;13997;48.902;12.472;2023-07-29T07:17:13;563.30;2432.00
26272;DHT22;13997;48.902;12.472;2023-07-29T07:19:38;563.30;2432.00
26272;DHT22;13997;48.902;12.472;2023-07-29T07:22:04;563.40;2432.00
26272;DHT22;13997;48.902;12.472;2023-07-29T07:24:29;563.50;2432.00
26272;DHT22;13997;48.902;12.472;2023-07-29T07:26:55;563.60;2432.00
26272;DHT22;13997;48.902;12.472;2023-07-29T07:29:20;563.70;2432.00
26272;DHT22;13997;48.902;12.472;2023-07-29T07:31:51;563.80;2432.00
26272;DHT22;13997;48.902;12.472;2023-07-29T07:34:18;563.80;2432.00
26272;DHT22;13997;48.902;12.472;2023-07-29T07:36:44;563.90;2432.00
26272;DHT22;13997;48.902;12.472;2023-07-29T07:39:09;564.00;2432.00
26272;DHT22;13997;48.902;12.472;2023-07-29T07:41:35;563.90;2432.00
26272;DHT22;13997;48.902;12.472;2023-07-29T07:44:00;563.90;2432.00
26272;DHT22;13997;48.902;12.472;2023-07-29T07:46:26;563.90;2432.00
26272;DHT22;13997;48.902;12.472;2023-07-29T07:48:51;563.90;2432.00
26272;DHT22;13997;48.902;12.472;2023-07-29T07:51:17;563.90;2432.00
26272;DHT22;13997;48.902;12.472;2023-07-29T07:53:42;564.00;2432.00
26272;DHT22;13997;48.902;12.472;2023-07-29T07:56:08;564.00;2432.00
26272;DHT22;13997;48.902;12.472;2023-07-29T07:58:34;564.10;2432.00
26272;DHT22;13997;48.902;12.472;2023-07-29T08:01:04;588.90;2432.00
26272;DHT22;13997;48.902;12.472;2023-07-29T08:03:30;589.10;2432.00
26272;DHT22;13997;48.902;12.472;2023-07-29T08:05:55;589.30;2432.00
26272;DHT22;13997;48.902;12.472;2023-07-29T08:08:21;589.50;2432.00
26272;DHT22;13997;48.902;12.472;2023-07-29T08:10:47;589.50;2432.00
26272;DHT22;13997;48.902;12.472;2023-07-29T08:13:12;589.50;2432.00
26272;DHT22;13997;48.902;12.472;2023-07-29T08:15:38;589.60;2432.00
26272;DHT22;13997;48.902;12.472;2023-07-29T08:18:03;589.60;2432.00
26272;DHT22;13997;48.902;12.472;2023-07-29T08:20:29;589.60;2432.00
26272;DHT22;13997;48.902;12.472;2023-07-29T08:22:54;589.50;2432.00
26272;DHT22;13997;48.902;12.472;2023-07-29T08:25:20;589.40;2432.00
26272;DHT22;13997;48.902;12.472;2023-07-29T08:27:46;589.10;2432.00
26272;DHT22;13997;48.902;12.472;2023-07-29T08:30:11;589.10;2432.00
26272;DHT22;13997;48.902;12.472;2023-07-29T08:32:37;588.90;2432.00
26272;DHT22;13997;48.902;12.472;2023-07-29T08:35:03;564.10;2432.00
26272;DHT22;13997;48.902;12.472;2023-07-29T08:37:29;563.90;2432.00
26272;DHT22;13997;48.902;12.472;2023-07-29T08:39:55;563.70;2432.00
26272;DHT22;13997;48.902;12.472;2023-07-29T08:42:20;563.50;2432.00
26272;DHT22;13997;48.902;12.472;2023-07-29T08:44:49;563.30;2432.00
26272;DHT22;13997;48.902;12.472;2023-07-29T08:47:16;538.50;2406.40
26272;DHT22;13997;48.902;12.472;2023-07-29T08:49:45;538.30;2406.40
26272;DHT22;13997;48.902;12.472;2023-07-29T08:52:11;538.10;2406.40
26272;DHT22;13997;48.902;12.472;2023-07-29T08:54:37;538.00;2406.40
26272;DHT22;13997;48.902;12.472;2023-07-29T08:57:03;537.80;2406.40
26272;DHT22;13997;48.902;12.472;2023-07-29T08:59:29;537.70;2406.40
26272;DHT22;13997;48.902;12.472;2023-07-29T09:01:55;537.70;2406.40
26272;DHT22;13997;48.902;12.472;2023-07-29T09:04:22;537.70;2406.40
26272;DHT22;13997;48.902;12.472;2023-07-29T09:06:50;537.70;2406.40
26272;DHT22;13997;48.902;12.472;2023-07-29T09:09:16;537.70;2406.40
26272;DHT22;13997;48.902;12.472;2023-07-29T09:11:43;537.80;2406.40
26272;DHT22;13997;48.902;12.472;2023-07-29T09:14:09;537.80;2406.40
26272;DHT22;13997;48.902;12.472;2023-07-29T09:16:35;537.70;2406.40
26272;DHT22;13997;48.902;12.472;2023-07-29T09:19:03;537.70;2406.40
26272;DHT22;13997;48.902;12.472;2023-07-29T09:21:28;537.70;2406.40
26272;DHT22;13997;48.902;12.472;2023-07-29T09:23:55;537.60;2406.40
26272;DHT22;13997;48.902;12.472;2023-07-29T09:26:25;537.60;2406.40
26272;DHT22;13997;48.902;12.472;2023-07-29T09:28:56;512.90;2380.80
26272;DHT22;13997;48.902;12.472;2023-07-29T09:31:24;512.90;2380.80
26272;DHT22;13997;48.902;12.472;2023-07-29T09:33:50;537.60;2406.40
26272;DHT22;13997;48.902;12.472;2023-07-29T09:36:21;537.70;2406.40
26272;DHT22;13997;48.902;12.472;2023-07-29T09:38:47;537.70;2406.40
26272;DHT22;13997;48.902;12.472;2023-07-29T09:41:13;537.90;2406.40
26272;DHT22;13997;48.902;12.472;2023-07-29T09:43:40;538.00;2406.40
26272;DHT22;13997;48.902;12.472;2023-07-29T09:46:06;538.10;2406.40
26272;DHT22;13997;48.902;12.472;2023-07-29T09:48:35;538.20;2406.40
26272;DHT22;13997;48.902;12.472;2023-07-29T09:51:10;538.30;2406.40
26272;DHT22;13997;48.902;12.472;2023-07-29T09:53:44;538.30;2406.40
26272;DHT22;13997;48.902;12.472;2023-07-29T09:56:10;538.40;2406.40
26272;DHT22;13997;48.902;12.472;2023-07-29T09:58:36;538.50;2406.40
26272;DHT22;13997;48.902;12.472;2023-07-29T10:01:07;563.20;2432.00
26272;DHT22;13997;48.902;12.472;2023-07-29T10:03:34;563.30;2432.00
26272;DHT22;13997;48.902;12.472;2023-07-29T10:06:05;563.60;2432.00
26272;DHT22;13997;48.902;12.472;2023-07-29T10:08:31;564.00;2432.00
26272;DHT22;13997;48.902;12.472;2023-07-29T10:11:09;588.90;2432.00
26272;DHT22;13997;48.902;12.472;2023-07-29T10:13:36;589.30;2432.00
26272;DHT22;13997;48.902;12.472;2023-07-29T10:16:03;589.50;2432.00
26272;DHT22;13997;48.902;12.472;2023-07-29T10:18:30;614.50;2432.00
26272;DHT22;13997;48.902;12.472;2023-07-29T10:20:57;614.50;2432.00
26272;DHT22;13997;48.902;12.472;2023-07-29T10:23:25;614.60;2432.00
26272;DHT22;13997;48.902;12.472;2023-07-29T10:26:10;614.80;2432.00
26272;DHT22;13997;48.902;12.472;2023-07-29T10:28:40;614.90;2432.00
26272;DHT22;13997;48.902;12.472;2023-07-29T10:31:07;614.80;2432.00
26272;DHT22;13997;48.902;12.472;2023-07-29T10:33:34;614.80;2432.00
26272;DHT22;13997;48.902;12.472;2023-07-29T10:36:00;614.70;2432.00
26272;DHT22;13997;48.902;12.472;2023-07-29T10:38:26;614.60;2432.00
26272;DHT22;13997;48.902;12.472;2023-07-29T10:40:54;614.50;2432.00
26272;DHT22;13997;48.902;12.472;2023-07-29T10:43:31;589.70;2432.00
26272;DHT22;13997;48.902;12.472;2023-07-29T10:46:14;589.50;2432.00
26272;DHT22;13997;48.902;12.472;2023-07-29T10:48:42;589.40;2432.00
26272;DHT22;13997;48.902;12.472;2023-07-29T10:51:31;589.30;2432.00
26272;DHT22;13997;48.902;12.472;2023-07-29T10:54:02;589.10;2432.00
26272;DHT22;13997;48.902;12.472;2023-07-29T10:56:33;589.00;2432.00
26272;DHT22;13997;48.902;12.472;2023-07-29T10:59:02;589.00;2432.00
26272;DHT22;13997;48.902;12.472;2023-07-29T11:01:56;589.00;2432.00
26272;DHT22;13997;48.902;12.472;2023-07-29T11:04:27;589.10;2432.00
26272;DHT22;13997;48.902;12.472;2023-07-29T11:12:48;589.60;2432.00
26272;DHT22;13997;48.902;12.472;2023-07-29T11:15:26;614.50;2432.00
26272;DHT22;13997;48.902;12.472;2023-07-29T11:17:59;614.80;2432.00
26272;DHT22;13997;48.902;12.472;2023-07-29T11:20:27;615.00;2432.00
26272;DHT22;13997;48.902;12.472;2023-07-29T11:22:54;615.10;2432.00
26272;DHT22;13997;48.902;12.472;2023-07-29T11:25:22;615.00;2432.00
26272;DHT22;13997;48.902;12.472;2023-07-29T11:27:48;615.10;2432.00
26272;DHT22;13997;48.902;12.472;2023-07-29T11:30:15;615.20;2432.00
26272;DHT22;13997;48.902;12.472;2023-07-29T11:32:43;615.30;2432.00
26272;DHT22;13997;48.902;12.472;2023-07-29T11:35:17;615.30;2432.00
26272;DHT22;13997;48.902;12.472;2023-07-29T11:37:48;615.30;2432.00
26272;DHT22;13997;48.902;12.472;2023-07-29T11:40:15;615.30;2432.00
26272;DHT22;13997;48.902;12.472;2023-07-29T11:42:41;615.20;2432.00
26272;DHT22;13997;48.902;12.472;2023-07-29T11:45:08;615.20;2432.00
26272;DHT22;13997;48.902;12.472;2023-07-29T11:47:35;615.30;2432.00
26272;DHT22;13997;48.902;12.472;2023-07-29T11:50:06;640.00;2432.00
26272;DHT22;13997;48.902;12.472;2023-07-29T11:52:33;640.00;2432.00
26272;DHT22;13997;48.902;12.472;2023-07-29T11:55:00;640.00;2432.00
26272;DHT22;13997;48.902;12.472;2023-07-29T11:57:26;640.10;2432.00
26272;DHT22;13997;48.902;12.472;2023-07-29T11:59:52;640.10;2432.00
26272;DHT22;13997;48.902;12.472;2023-07-29T12:02:20;640.10;2432.00
26272;DHT22;13997;48.902;12.472;2023-07-29T12:04:47;640.20;2432.00
26272;DHT22;13997;48.902;12.472;2023-07-29T12:07:16;640.20;2432.00
26272;DHT22;13997;48.902;12.472;2023-07-29T12:09:42;640.30;2432.00
26272;DHT22;13997;48.902;12.472;2023-07-29T12:12:09;640.40;2432.00
26272;DHT22;13997;48.902;12.472;2023-07-29T12:14:35;640.30;2432.00
26272;DHT22;13997;48.902;12.472;2023-07-29T12:17:01;640.40;2432.00
26272;DHT22;13997;48.902;12.472;2023-07-29T12:19:35;640.30;2432.00
26272;DHT22;13997;48.902;12.472;2023-07-29T12:22:02;640.60;2432.00
26272;DHT22;13997;48.902;12.472;2023-07-29T12:24:30;640.70;2432.00
26272;DHT22;13997;48.902;12.472;2023-07-29T12:26:57;640.90;2432.00
26272;DHT22;13997;48.902;12.472;2023-07-29T12:29:22;665.70;2432.00
26272;DHT22;13997;48.902;12.472;2023-07-29T12:31:49;665.90;2432.00
26272;DHT22;13997;48.902;12.472;2023-07-29T12:34:22;665.90;2432.00
26272;DHT22;13997;48.902;12.472;2023-07-29T12:36:49;665.80;2432.00
26272;DHT22;13997;48.902;12.472;2023-07-29T12:39:24;665.80;2432.00
26272;DHT22;13997;48.902;12.472;2023-07-29T12:41:51;665.80;2432.00
26272;DHT22;13997;48.902;12.472;2023-07-29T12:44:17;665.90;2432.00
26272;DHT22;13997;48.902;12.472;2023-07-29T12:46:43;665.70;2432.00
26272;DHT22;13997;48.902;12.472;2023-07-29T12:49:10;665.80;2432.00
26272;DHT22;13997;48.902;12.472;2023-07-29T12:51:35;665.80;2432.00
26272;DHT22;13997;48.902;12.472;2023-07-29T12:54:03;665.90;2432.00
26272;DHT22;13997;48.902;12.472;2023-07-29T12:56:30;666.10;2432.00
26272;DHT22;13997;48.902;12.472;2023-07-29T12:58:56;666.20;2432.00
26272;DHT22;13997;48.902;12.472;2023-07-29T13:01:23;666.40;2432.00
26272;DHT22;13997;48.902;12.472;2023-07-29T13:03:49;666.40;2432.00
26272;DHT22;13997;48.902;12.472;2023-07-29T13:06:14;666.50;2432.00
26272;DHT22;13997;48.902;12.472;2023-07-29T13:08:41;691.20;2432.00
26272;DHT22;13997;48.902;12.472;2023-07-29T13:11:06;691.50;2432.00
26272;DHT22;13997;48.902;12.472;2023-07-29T13:13:32;691.60;2432.00
26272;DHT22;13997;48.902;12.472;2023-07-29T13:15:58;691.80;2432.00
26272;DHT22;13997;48.902;12.472;2023-07-29T13:18:24;691.80;2432.00
26272;DHT22;13997;48.902;12.472;2023-07-29T13:20:50;691.60;2432.00
26272;DHT22;13997;48.902;12.472;2023-07-29T13:23:15;691.30;2432.00
26272;DHT22;13997;48.902;12.472;2023-07-29T13:25:41;666.50;2432.00
26272;DHT22;13997;48.902;12.472;2023-07-29T13:28:09;666.40;2432.00
26272;DHT22;13997;48.902;12.472;2023-07-29T13:30:35;666.20;2432.00
26272;DHT22;13997;48.902;12.472;2023-07-29T13:33:00;666.10;2432.00
26272;DHT22;13997;48.902;12.472;2023-07-29T13:35:26;666.10;2432.00
26272;DHT22;13997;48.902;12.472;2023-07-29T13:37:52;666.10;2432.00
26272;DHT22;13997;48.902;12.472;2023-07-29T13:40:17;666.20;2432.00
26272;DHT22;13997;48.902;12.472;2023-07-29T13:42:43;666.20;2432.00
26272;DHT22;13997;48.902;12.472;2023-07-29T13:45:09;666.10;2432.00
26272;DHT22;13997;48.902;12.472;2023-07-29T13:47:34;665.90;2432.00
26272;DHT22;13997;48.902;12.472;2023-07-29T13:50:00;665.80;2432.00
26272;DHT22;13997;48.902;12.472;2023-07-29T13:52:26;665.70;2432.00
26272;DHT22;13997;48.902;12.472;2023-07-29T13:54:52;640.90;2432.00
26272;DHT22;13997;48.902;12.472;2023-07-29T13:57:17;640.80;2432.00
26272;DHT22;13997;48.902;12.472;2023-07-29T13:59:43;640.70;2432.00
26272;DHT22;13997;48.902;12.472;2023-07-29T14:02:08;640.70;2432.00
26272;DHT22;13997;48.902;12.472;2023-07-29T14:04:34;640.80;2432.00
26272;DHT22;13997;48.902;12.472;2023-07-29T14:07:00;665.60;2432.00
26272;DHT22;13997;48.902;12.472;2023-07-29T14:09:26;665.80;2432.00
26272;DHT22;13997;48.902;12.472;2023-07-29T14:11:53;665.60;2432.00
26272;DHT22;13997;48.902;12.472;2023-07-29T14:14:19;640.80;2432.00
26272;DHT22;13997;48.902;12.472;2023-07-29T14:16:44;640.70;2432.00
26272;DHT22;13997;48.902;12.472;2023-07-29T14:19:10;640.60;2432.00
26272;DHT22;13997;48.902;12.472;2023-07-29T14:21:36;640.60;2432.00
26272;DHT22;13997;48.902;12.472;2023-07-29T14:24:01;640.50;2432.00
26272;DHT22;13997;48.902;12.472;2023-07-29T14:26:27;640.50;2432.00
26272;DHT22;13997;48.902;12.472;2023-07-29T14:28:52;640.50;2432.00
26272;DHT22;13997;48.902;12.472;2023-07-29T14:31:18;640.40;2432.00
26272;DHT22;13997;48.902;12.472;2023-07-29T14:33:44;640.20;2432.00
26272;DHT22;13997;48.902;12.472;2023-07-29T14:36:10;640.10;2432.00
26272;DHT22;13997;48.902;12.472;2023-07-29T14:38:36;640.10;2432.00
26272;DHT22;13997;48.902;12.472;2023-07-29T14:41:02;640.20;2432.00
26272;DHT22;13997;48.902;12.472;2023-07-29T14:43:28;640.40;2432.00